Martin Challenger — WDB2346 — position and weather

sailwx.info

Track history (hours):
 
Tides and Currents Weather Stations Pressure Air Temp Water Temp Dewpoint Dewpoint Depression Visibility Wind Speed Wind Dir Waves Ship Positions

Martin Challenger

Owner: MARTIN OPERATING PARTNERSHIP LP, VIDOR, TX. More information available from US FCC via Universal Licensing System and Coast Guard Vessel Documentation Center.

Last reported at 2017-Feb-23 10:33 UTC. Time now 2017-Feb-24 10:35 UTC.
Position N 29°22' W 094°53'.

Length 20 m.

MMSI: 366874920.

Date/timePositionNaut miles runAvg speedWind from/ knotsBaromVisibWave heightAir tempDewpointWater temp
2017-Feb-23 10:33N 29°22' W 094°53'0 0.0
2017-Feb-23 08:31N 29°22' W 094°53'0 0.0
2017-Feb-23 07:33N 29°22' W 094°53'0 0.0
2017-Feb-23 05:30N 29°22' W 094°53'0 0.0
2017-Feb-23 04:33N 29°22' W 094°53'0 0.0
2017-Feb-23 03:33N 29°22' W 094°53'1 0.1
2017-Feb-22 14:25N 29°22' W 094°55'5 0.1
2017-Feb-20 21:18N 29°23' W 094°49'4 5.6
2017-Feb-20 20:33N 29°27' W 094°51'6 5.6
2017-Feb-20 19:33N 29°32' W 094°54'6 6.2
2017-Feb-20 18:33N 29°37' W 094°58'6 5.8
2017-Feb-20 17:33N 29°42' W 095°01'5 5.2
2017-Feb-20 16:33N 29°45' W 095°06'1 1.1
2017-Feb-20 15:33N 29°46' W 095°07'1 0.0
2017-Feb-19 00:32N 29°46' W 095°05'4 4.2
2017-Feb-18 23:33N 29°43' W 095°01'4 4.2
2017-Feb-18 22:33N 29°40' W 094°58'5 4.8
2017-Feb-18 21:33N 29°36' W 094°56'5 4.8
2017-Feb-18 20:33N 29°32' W 094°53'10 3.0
2017-Feb-18 17:22N 29°22' W 094°53'0 0.0
2017-Feb-17 21:28N 29°22' W 094°53'0 0.0
2017-Feb-17 20:29N 29°22' W 094°53'0 0.0
2017-Feb-17 19:31N 29°22' W 094°53'0 0.0
2017-Feb-17 18:28N 29°22' W 094°53'0 0.0
2017-Feb-17 17:33N 29°22' W 094°53'0 0.0
2017-Feb-17 16:20N 29°22' W 094°53'0 0.0
2017-Feb-17 15:32N 29°22' W 094°53'0 0.0
2017-Feb-17 14:33N 29°22' W 094°53'0 0.0
2017-Feb-17 13:30N 29°22' W 094°53'0 0.0
2017-Feb-16 20:23N 29°22' W 094°53'0 0.0
2017-Feb-16 19:33N 29°22' W 094°53'0 0.0
2017-Feb-16 18:26N 29°22' W 094°53'0 0.0
2017-Feb-16 17:33N 29°22' W 094°53'0 0.0
2017-Feb-16 16:33N 29°22' W 094°53'0 0.0
2017-Feb-16 15:33N 29°22' W 094°53'0 0.0
2017-Feb-16 14:33N 29°22' W 094°53'0 0.0
2017-Feb-16 13:33N 29°22' W 094°53'0 0.0
2017-Feb-16 07:07N 29°22' W 094°53'0 0.0
2017-Feb-16 00:18N 29°22' W 094°53'0 0.0
2017-Feb-15 23:33N 29°22' W 094°53'0 0.0
2017-Feb-15 20:32N 29°22' W 094°53'0 0.0
2017-Feb-15 19:33N 29°22' W 094°53'0 0.0
2017-Feb-15 18:33N 29°22' W 094°53'0 0.0
2017-Feb-15 17:32N 29°22' W 094°53'0 0.0
2017-Feb-15 16:33N 29°22' W 094°53'0 0.0
2017-Feb-15 15:33N 29°22' W 094°53'0 0.0
2017-Feb-15 14:33N 29°22' W 094°53'0 0.0
2017-Feb-15 13:31N 29°22' W 094°53'  
Track history (hours):
 
Tides and Currents Weather Stations Pressure Air Temp Water Temp Dewpoint Dewpoint Depression Visibility Wind Speed Wind Dir Waves Ship Positions

Martin Challenger

Owner: MARTIN OPERATING PARTNERSHIP LP, VIDOR, TX. More information available from US FCC via Universal Licensing System and Coast Guard Vessel Documentation Center.

Last reported at 2017-Feb-23 10:33 UTC. Time now 2017-Feb-24 10:35 UTC.
Position N 29°22' W 094°53'.

Length 20 m.

MMSI: 366874920.

Date/timePositionNaut miles runAvg speedWind from/ knotsBaromVisibWave heightAir tempDewpointWater temp
2017-Feb-23 10:33N 29°22' W 094°53'0 0.0
2017-Feb-23 08:31N 29°22' W 094°53'0 0.0
2017-Feb-23 07:33N 29°22' W 094°53'0 0.0
2017-Feb-23 05:30N 29°22' W 094°53'0 0.0
2017-Feb-23 04:33N 29°22' W 094°53'0 0.0
2017-Feb-23 03:33N 29°22' W 094°53'1 0.1
2017-Feb-22 14:25N 29°22' W 094°55'5 0.1
2017-Feb-20 21:18N 29°23' W 094°49'4 5.6
2017-Feb-20 20:33N 29°27' W 094°51'6 5.6
2017-Feb-20 19:33N 29°32' W 094°54'6 6.2
2017-Feb-20 18:33N 29°37' W 094°58'6 5.8
2017-Feb-20 17:33N 29°42' W 095°01'5 5.2
2017-Feb-20 16:33N 29°45' W 095°06'1 1.1
2017-Feb-20 15:33N 29°46' W 095°07'1 0.0
2017-Feb-19 00:32N 29°46' W 095°05'4 4.2
2017-Feb-18 23:33N 29°43' W 095°01'4 4.2
2017-Feb-18 22:33N 29°40' W 094°58'5 4.8
2017-Feb-18 21:33N 29°36' W 094°56'5 4.8
2017-Feb-18 20:33N 29°32' W 094°53'10 3.0
2017-Feb-18 17:22N 29°22' W 094°53'0 0.0
2017-Feb-17 21:28N 29°22' W 094°53'0 0.0
2017-Feb-17 20:29N 29°22' W 094°53'0 0.0
2017-Feb-17 19:31N 29°22' W 094°53'0 0.0
2017-Feb-17 18:28N 29°22' W 094°53'0 0.0
2017-Feb-17 17:33N 29°22' W 094°53'0 0.0
2017-Feb-17 16:20N 29°22' W 094°53'0 0.0
2017-Feb-17 15:32N 29°22' W 094°53'0 0.0
2017-Feb-17 14:33N 29°22' W 094°53'0 0.0
2017-Feb-17 13:30N 29°22' W 094°53'0 0.0
2017-Feb-16 20:23N 29°22' W 094°53'0 0.0
2017-Feb-16 19:33N 29°22' W 094°53'0 0.0
2017-Feb-16 18:26N 29°22' W 094°53'0 0.0
2017-Feb-16 17:33N 29°22' W 094°53'0 0.0
2017-Feb-16 16:33N 29°22' W 094°53'0 0.0
2017-Feb-16 15:33N 29°22' W 094°53'0 0.0
2017-Feb-16 14:33N 29°22' W 094°53'0 0.0
2017-Feb-16 13:33N 29°22' W 094°53'0 0.0
2017-Feb-16 07:07N 29°22' W 094°53'0 0.0
2017-Feb-16 00:18N 29°22' W 094°53'0 0.0
2017-Feb-15 23:33N 29°22' W 094°53'0 0.0
2017-Feb-15 20:32N 29°22' W 094°53'0 0.0
2017-Feb-15 19:33N 29°22' W 094°53'0 0.0
2017-Feb-15 18:33N 29°22' W 094°53'0 0.0
2017-Feb-15 17:32N 29°22' W 094°53'0 0.0
2017-Feb-15 16:33N 29°22' W 094°53'0 0.0
2017-Feb-15 15:33N 29°22' W 094°53'0 0.0
2017-Feb-15 14:33N 29°22' W 094°53'0 0.0
2017-Feb-15 13:31N 29°22' W 094°53'  

Dump ship's entire track history